createdAt,value
2019-05-16T00:07:04.946Z,85.00
2019-05-16T00:17:08.347Z,84.20
2019-05-16T00:27:09.805Z,82.60
2019-05-16T00:37:11.371Z,82.60
2019-05-16T00:47:13.212Z,81.70
2019-05-16T00:57:15.250Z,81.20
2019-05-16T01:07:18.700Z,80.60
2019-05-16T01:17:20.056Z,81.80
2019-05-16T01:27:21.490Z,84.00
2019-05-16T01:37:22.935Z,82.40
2019-05-16T01:47:24.374Z,83.80
2019-05-16T01:57:28.262Z,85.00
2019-05-16T02:07:29.838Z,86.90
2019-05-16T02:17:31.275Z,89.00
2019-05-16T02:27:32.709Z,90.10
2019-05-16T02:37:35.237Z,90.70
2019-05-16T02:47:36.946Z,91.40
2019-05-16T02:57:41.528Z,94.70
2019-05-16T03:07:46.865Z,89.60
2019-05-16T03:17:50.744Z,88.30
2019-05-16T03:27:52.505Z,89.70
2019-05-16T03:37:59.709Z,90.30
2019-05-16T03:47:57.707Z,91.10
2019-05-16T03:58:01.097Z,91.90
2019-05-16T04:08:15.261Z,92.40
2019-05-16T04:18:07.224Z,92.10
2019-05-16T04:28:11.453Z,91.90
2019-05-16T04:38:28.632Z,90.90
2019-05-16T04:48:15.744Z,90.20
2019-05-16T04:58:22.626Z,89.90
2019-05-16T05:08:22.476Z,91.80
2019-05-16T05:18:24.249Z,86.40
2019-05-16T05:28:25.693Z,86.80
2019-05-16T05:38:27.103Z,84.70
2019-05-16T05:48:30.876Z,84.20
2019-05-16T05:58:31.989Z,69.40
2019-05-16T06:08:33.488Z,58.10
2019-05-16T06:18:34.958Z,47.80
2019-05-16T06:28:41.054Z,42.30
2019-05-16T06:38:41.764Z,36.60
2019-05-16T06:48:43.204Z,35.10
2019-05-16T06:58:48.329Z,36.20
2019-05-16T07:08:50.519Z,35.00
2019-05-16T07:18:51.550Z,28.80
2019-05-16T07:28:53.058Z,28.30
2019-05-16T07:38:54.712Z,31.20
2019-05-16T07:48:56.156Z,36.30
2019-05-16T07:58:57.985Z,40.00
2019-05-16T08:09:00.304Z,42.60
2019-05-16T08:19:01.976Z,38.60
2019-05-16T08:29:03.549Z,37.20
2019-05-16T08:39:06.601Z,39.40
2019-05-16T08:49:12.015Z,41.00
2019-05-16T08:59:13.699Z,40.30
2019-05-16T09:09:29.702Z,41.00
2019-05-16T09:19:18.581Z,40.40
2019-05-16T09:29:20.412Z,30.80
2019-05-16T09:39:23.055Z,34.80
2019-05-16T09:49:26.198Z,32.70
2019-05-16T09:59:27.672Z,30.40
2019-05-16T10:09:41.162Z,30.00
2019-05-16T10:19:32.562Z,30.90
2019-05-16T10:29:34.121Z,37.60
2019-05-16T10:39:37.391Z,40.00
2019-05-16T10:49:41.964Z,41.40
2019-05-16T11:00:09.687Z,41.40
2019-05-16T11:09:55.751Z,41.40
2019-05-16T11:19:50.018Z,42.80
2019-05-16T11:29:51.447Z,37.00
2019-05-16T11:39:52.982Z,34.20
2019-05-16T11:49:56.941Z,34.80
2019-05-16T11:59:57.737Z,37.20
2019-05-16T12:09:59.185Z,38.60
2019-05-16T12:20:00.951Z,38.60
2019-05-16T12:30:13.013Z,41.60
2019-05-16T12:40:10.235Z,40.30
2019-05-16T12:50:12.973Z,40.80
2019-05-16T13:00:16.354Z,42.30
2019-05-16T13:10:19.265Z,41.30
2019-05-16T13:20:21.992Z,39.30
2019-05-16T13:30:26.701Z,41.50
2019-05-16T13:40:27.769Z,40.00
2019-05-16T13:50:29.718Z,41.80
2019-05-16T14:00:31.343Z,44.70
2019-05-16T14:10:32.775Z,43.30
2019-05-16T14:20:34.233Z,42.50
2019-05-16T14:30:37.281Z,44.00
2019-05-16T14:40:39.100Z,43.90
2019-05-16T14:50:41.341Z,46.00
2019-05-16T15:00:42.787Z,45.30
2019-05-16T15:10:46.750Z,44.00
2019-05-16T15:20:49.175Z,44.40
2019-05-16T15:30:50.951Z,46.70
2019-05-16T15:40:53.748Z,44.00
2019-05-16T15:50:59.502Z,44.60
2019-05-16T16:01:00.187Z,45.10
2019-05-16T16:11:01.701Z,44.90
2019-05-16T16:21:07.676Z,46.10
2019-05-16T16:31:09.379Z,47.30
2019-05-16T16:41:10.822Z,48.90
2019-05-16T16:51:12.697Z,48.30
2019-05-16T17:01:14.353Z,49.70
2019-05-16T17:11:15.887Z,51.30
2019-05-16T17:21:17.465Z,51.20
2019-05-16T17:31:18.934Z,52.60
2019-05-16T17:41:20.457Z,53.30
2019-05-16T17:51:22.109Z,54.70
2019-05-16T18:01:23.892Z,54.70
2019-05-16T18:11:26.780Z,55.90
2019-05-16T18:21:28.480Z,57.50
2019-05-16T18:31:32.169Z,59.60
2019-05-16T18:41:33.281Z,60.70
2019-05-16T18:51:36.880Z,64.60
2019-05-16T19:01:38.411Z,68.60
2019-05-16T19:11:40.278Z,73.20
2019-05-16T19:21:41.717Z,75.00
2019-05-16T19:31:43.424Z,78.60
2019-05-16T19:41:46.633Z,80.50
2019-05-16T19:51:49.093Z,83.40
2019-05-16T20:01:50.677Z,86.20
2019-05-16T20:11:52.371Z,87.30
2019-05-16T20:21:54.054Z,89.40
2019-05-16T20:31:56.447Z,90.80
2019-05-16T20:41:59.678Z,93.30
2019-05-16T20:52:01.496Z,88.10
2019-05-16T21:02:06.827Z,90.10
2019-05-16T21:12:08.513Z,91.40
2019-05-16T21:22:09.933Z,92.30
2019-05-16T21:32:11.592Z,92.80
2019-05-16T21:42:13.715Z,92.60
2019-05-16T21:52:15.172Z,93.30
2019-05-16T22:02:18.531Z,93.70
2019-05-16T22:12:20.466Z,94.30
2019-05-16T22:22:29.760Z,94.10
2019-05-16T22:32:29.462Z,94.00
2019-05-16T22:42:30.978Z,94.20
2019-05-16T22:52:32.596Z,95.00
2019-05-16T23:02:34.347Z,94.80
2019-05-16T23:12:37.159Z,94.80
2019-05-16T23:22:38.806Z,95.10
2019-05-16T23:32:40.267Z,95.10
2019-05-16T23:42:42.081Z,95.00
2019-05-16T23:52:43.506Z,95.10
